Time;durP1;ratioP1;P1;durP2;ratioP2;P2;SDS_P1;SDS_P2;PMS_P1;PMS_P2;Temp;Humidity;BMP_temperature;BMP_pressure;BME280_temperature;BME280_humidity;BME280_pressure;Samples;Min_cycle;Max_cycle;Signal;HPM_P1;HPM_P2
2024/02/21 08:22:43;;;;;;;;;28.00;24.00;;;;;;;;4810241;27;13531;-70
2024/02/21 08:25:08;;;;;;;;;29.50;25.75;;;;;;;;4985772;28;11489;-69
2024/02/21 08:27:34;;;;;;;;;25.25;24.75;;;;;;;;5025589;28;8843;-70
2024/02/21 08:29:59;;;;;;;;;31.25;26.25;;;;;;;;5036803;28;8808;-69
2024/02/21 08:32:24;;;;;;;;;28.75;28.00;;;;;;;;5024791;28;8843;-68
2024/02/21 08:34:50;;;;;;;;;37.50;30.00;;;;;;;;5027504;28;9561;-71
2024/02/21 08:37:15;;;;;;;;;28.75;25.25;;;;;;;;5027087;28;8853;-70
2024/02/21 08:39:40;;;;;;;;;25.25;23.75;;;;;;;;5027282;28;8796;-71
2024/02/21 08:42:06;;;;;;;;;26.75;25.00;;;;;;;;5027243;28;8839;-67
2024/02/21 08:44:31;;;;;;;;;27.75;25.25;;;;;;;;5027619;28;8808;-69
2024/02/21 08:46:56;;;;;;;;;24.75;24.75;;;;;;;;5027445;28;8816;-68
2024/02/21 08:49:21;;;;;;;;;25.50;25.00;;;;;;;;5026171;28;8788;-68
2024/02/21 08:51:47;;;;;;;;;24.50;22.75;;;;;;;;5027396;28;8905;-68
2024/02/21 08:54:12;;;;;;;;;28.00;24.25;;;;;;;;5026465;28;8899;-66
2024/02/21 08:56:37;;;;;;;;;23.50;23.00;;;;;;;;5025786;28;8802;-66
2024/02/21 08:59:03;;;;;;;;;29.50;26.75;;;;;;;;5026808;28;8816;-67
2024/02/21 09:01:28;;;;;;;;;23.75;23.25;;;;;;;;5026374;28;8875;-66
2024/02/21 09:03:54;;;;;;;;;26.25;22.50;;;;;;;;5026616;28;8855;-69
2024/02/21 09:06:20;;;;;;;;;25.50;23.00;;;;;;;;5026573;28;8808;-72
2024/02/21 09:08:45;;;;;;;;;27.00;25.75;;;;;;;;5042286;28;8902;-68
2024/02/21 09:11:10;;;;;;;;;26.00;23.50;;;;;;;;5042052;28;8838;-69
2024/02/21 09:13:36;;;;;;;;;24.25;22.25;;;;;;;;5026166;28;8816;-71
2024/02/21 09:16:01;;;;;;;;;27.25;23.75;;;;;;;;5026159;28;8808;-74
2024/02/21 09:18:26;;;;;;;;;29.25;23.00;;;;;;;;5023612;28;8846;-69
2024/02/21 09:20:51;;;;;;;;;34.00;30.75;;;;;;;;5023836;28;8874;-73
2024/02/21 09:23:19;;;;;;;;;23.75;22.00;;;;;;;;5024666;28;8792;-73
2024/02/21 09:25:45;;;;;;;;;26.00;24.75;;;;;;;;5024624;28;8804;-73
2024/02/21 09:28:11;;;;;;;;;26.00;25.50;;;;;;;;5024555;28;11534;-70
2024/02/21 09:30:37;;;;;;;;;25.00;22.00;;;;;;;;5024663;28;11567;-70
2024/02/21 09:33:04;;;;;;;;;29.25;27.00;;;;;;;;5015760;28;8832;-70
2024/02/21 09:35:30;;;;;;;;;39.25;35.50;;;;;;;;5011414;28;11532;-70
2024/02/21 09:37:55;;;;;;;;;29.00;27.75;;;;;;;;5013354;28;12384;-68
2024/02/21 09:40:21;;;;;;;;;25.75;22.00;;;;;;;;5013314;28;8794;-69
2024/02/21 09:42:47;;;;;;;;;28.25;27.25;;;;;;;;5013481;28;8839;-69
2024/02/21 09:45:19;;;;;;;;;28.00;26.25;;;;;;;;5013536;28;8843;-69
2024/02/21 09:47:51;;;;;;;;;23.75;23.75;;;;;;;;5012935;28;8812;-73
2024/02/21 09:50:17;;;;;;;;;24.25;23.25;;;;;;;;5010970;28;11030;-68
2024/02/21 09:52:43;;;;;;;;;27.25;24.75;;;;;;;;5013118;28;10656;-67
2024/02/21 09:55:11;;;;;;;;;28.75;26.75;;;;;;;;5013245;28;10239;-67
2024/02/21 09:57:37;;;;;;;;;24.75;22.00;;;;;;;;5011890;28;9768;-66
2024/02/21 10:00:07;;;;;;;;;24.00;22.33;;;;;;;;5013164;28;9567;-67
2024/02/21 10:02:32;;;;;;;;;21.00;20.25;;;;;;;;5011653;28;8859;-67
2024/02/21 10:04:58;;;;;;;;;21.33;21.33;;;;;;;;5010758;28;8823;-67
2024/02/21 10:07:25;;;;;;;;;23.00;21.00;;;;;;;;5012043;28;8804;-67
2024/02/21 10:10:00;;;;;;;;;22.50;22.00;;;;;;;;5012375;28;9506;-67
2024/02/21 10:12:25;;;;;;;;;23.75;22.25;;;;;;;;5012233;28;8835;-66
2024/02/21 10:14:59;;;;;;;;;24.00;22.00;;;;;;;;5010768;28;8820;-67
2024/02/21 10:17:25;;;;;;;;;25.00;21.00;;;;;;;;5010982;28;8838;-67
2024/02/21 10:19:52;;;;;;;;;21.00;20.33;;;;;;;;5025458;28;8820;-67
2024/02/21 10:22:17;;;;;;;;;20.40;19.00;;;;;;;;5010757;28;8933;-67
2024/02/21 10:24:42;;;;;;;;;16.75;16.00;;;;;;;;5011138;28;9569;-67
2024/02/21 10:27:08;;;;;;;;;18.00;18.00;;;;;;;;5010707;28;8816;-67
2024/02/21 10:29:34;;;;;;;;;18.25;18.25;;;;;;;;5010776;28;8797;-67
2024/02/21 10:32:06;;;;;;;;;19.00;17.67;;;;;;;;5010174;28;8835;-67
2024/02/21 10:34:32;;;;;;;;;21.75;20.75;;;;;;;;5012258;28;8823;-67
2024/02/21 10:37:06;;;;;;;;;17.33;16.67;;;;;;;;5012526;28;8886;-67
2024/02/21 10:39:32;;;;;;;;;21.00;19.50;;;;;;;;5012375;28;8820;-66
2024/02/21 10:42:00;;;;;;;;;19.33;18.33;;;;;;;;5010955;28;8891;-66
2024/02/21 10:44:28;;;;;;;;;18.67;17.00;;;;;;;;5011324;28;9580;-66
2024/02/21 10:46:54;;;;;;;;;18.33;15.67;;;;;;;;5011985;28;9477;-66
2024/02/21 10:49:25;;;;;;;;;16.00;13.67;;;;;;;;5011841;28;9382;-66
2024/02/21 10:51:54;;;;;;;;;20.00;18.33;;;;;;;;5012294;28;9207;-66
2024/02/21 10:54:37;;;;;;;;;14.50;13.75;;;;;;;;5012053;28;9029;-66
2024/02/21 10:57:04;;;;;;;;;14.00;13.25;;;;;;;;5027172;28;8784;-67
2024/02/21 10:59:31;;;;;;;;;16.75;15.25;;;;;;;;5011957;28;8792;-67
2024/02/21 11:01:57;;;;;;;;;17.00;16.75;;;;;;;;5011888;28;8827;-66
2024/02/21 11:04:22;;;;;;;;;16.00;16.00;;;;;;;;5011925;28;8784;-67
2024/02/21 11:06:48;;;;;;;;;19.67;18.67;;;;;;;;5012015;28;8849;-67
2024/02/21 11:09:13;;;;;;;;;21.00;19.00;;;;;;;;5011795;28;8788;-66
2024/02/21 11:11:40;;;;;;;;;15.33;15.00;;;;;;;;5011780;28;10229;-67
2024/02/21 11:14:05;;;;;;;;;24.00;21.25;;;;;;;;5011699;28;9263;-67
2024/02/21 11:16:34;;;;;;;;;26.25;25.50;;;;;;;;5012130;28;9847;-67
2024/02/21 11:19:31;;;;;;;;;22.50;22.50;;;;;;;;5011426;28;8792;-66
2024/02/21 11:21:57;;;;;;;;;25.50;22.50;;;;;;;;4969874;28;9976;-66
2024/02/21 11:24:40;;;;;;;;;26.75;24.25;;;;;;;;4969966;28;10654;-68
2024/02/21 11:27:11;;;;;;;;;24.25;24.25;;;;;;;;4969966;28;10777;-67
2024/02/21 11:29:41;;;;;;;;;25.75;24.25;;;;;;;;4970040;28;10146;-67
2024/02/21 11:32:09;;;;;;;;;22.50;22.00;;;;;;;;4969995;28;10214;-67
2024/02/21 11:34:34;;;;;;;;;22.50;19.25;;;;;;;;4969788;28;10292;-67
2024/02/21 11:36:59;;;;;;;;;19.00;17.50;;;;;;;;4969749;28;10487;-68
2024/02/21 11:39:25;;;;;;;;;22.50;19.75;;;;;;;;4969763;28;8789;-67
2024/02/21 11:42:03;;;;;;;;;18.00;16.50;;;;;;;;4969835;28;8866;-67
2024/02/21 11:44:29;;;;;;;;;13.50;13.50;;;;;;;;4969531;28;10372;-66
2024/02/21 11:46:55;;;;;;;;;20.75;16.75;;;;;;;;4969557;28;10611;-67
2024/02/21 11:49:20;;;;;;;;;16.00;15.00;;;;;;;;4969461;28;8809;-68
2024/02/21 11:51:45;;;;;;;;;52.00;42.25;;;;;;;;4969501;28;8796;-67
2024/02/21 11:54:13;;;;;;;;;29.50;29.00;;;;;;;;4969869;28;8823;-66
2024/02/21 11:56:38;;;;;;;;;11.25;10.50;;;;;;;;4969385;28;8812;-67
2024/02/21 11:59:04;;;;;;;;;10.50;10.50;;;;;;;;5015161;28;10378;-67
2024/02/21 12:01:31;;;;;;;;;10.50;9.25;;;;;;;;5010952;28;8819;-66
2024/02/21 12:03:56;;;;;;;;;9.00;8.00;;;;;;;;5010622;28;10199;-66
2024/02/21 12:06:22;;;;;;;;;8.00;8.00;;;;;;;;5010902;28;8799;-66
2024/02/21 12:08:47;;;;;;;;;11.25;9.75;;;;;;;;5011001;28;8823;-67
2024/02/21 12:11:22;;;;;;;;;8.25;8.25;;;;;;;;5010970;28;8816;-66
2024/02/21 12:14:01;;;;;;;;;10.25;10.25;;;;;;;;5010846;28;8866;-67
2024/02/21 12:16:32;;;;;;;;;6.75;6.75;;;;;;;;5011148;28;10460;-67
2024/02/21 12:18:58;;;;;;;;;7.75;7.75;;;;;;;;5010671;28;10358;-66
2024/02/21 12:21:29;;;;;;;;;5.00;5.00;;;;;;;;5009204;28;10602;-66
2024/02/21 12:23:55;;;;;;;;;10.50;8.00;;;;;;;;5025682;28;10619;-66
2024/02/21 12:26:20;;;;;;;;;6.50;5.25;;;;;;;;5010423;28;10476;-66
2024/02/21 12:28:46;;;;;;;;;7.50;7.00;;;;;;;;5010585;28;8902;-66
2024/02/21 12:31:11;;;;;;;;;7.50;6.00;;;;;;;;5010499;28;8897;-66
2024/02/21 12:33:37;;;;;;;;;5.50;5.50;;;;;;;;5010410;28;8819;-67
2024/02/21 12:36:03;;;;;;;;;15.75;15.75;;;;;;;;5010372;28;8792;-66
2024/02/21 12:38:29;;;;;;;;;7.00;7.00;;;;;;;;5010700;28;9731;-66
2024/02/21 12:40:54;;;;;;;;;10.25;8.75;;;;;;;;5009121;28;10666;-66
2024/02/21 12:43:20;;;;;;;;;7.50;7.25;;;;;;;;5010537;28;8796;-66
2024/02/21 12:45:45;;;;;;;;;6.25;6.25;;;;;;;;5010261;28;8780;-66
2024/02/21 12:48:10;;;;;;;;;5.50;5.50;;;;;;;;5010549;28;8997;-66
2024/02/21 12:50:35;;;;;;;;;6.00;5.50;;;;;;;;5010209;28;9541;-66
2024/02/21 12:53:01;;;;;;;;;8.00;7.00;;;;;;;;5010426;28;8885;-66
2024/02/21 12:55:26;;;;;;;;;13.75;9.50;;;;;;;;5010176;28;8902;-66
2024/02/21 12:57:51;;;;;;;;;12.75;12.50;;;;;;;;5010212;28;8792;-66
2024/02/21 13:00:17;;;;;;;;;10.25;10.25;;;;;;;;5008861;28;8804;-66
2024/02/21 13:02:42;;;;;;;;;12.00;10.00;;;;;;;;5010244;28;8832;-66
2024/02/21 13:05:08;;;;;;;;;9.25;9.00;;;;;;;;5010260;28;8804;-66
2024/02/21 13:07:33;;;;;;;;;8.25;8.25;;;;;;;;5010982;28;8804;-66
2024/02/21 13:09:59;;;;;;;;;12.00;8.50;;;;;;;;5014065;28;8792;-66
2024/02/21 13:12:26;;;;;;;;;8.00;8.00;;;;;;;;5013864;28;9557;-66
2024/02/21 13:14:51;;;;;;;;;10.00;9.75;;;;;;;;5013952;28;8780;-67
2024/02/21 13:17:17;;;;;;;;;9.50;8.75;;;;;;;;5012828;28;11841;-66
2024/02/21 13:19:42;;;;;;;;;3.00;3.00;;;;;;;;5012271;28;9581;-66
2024/02/21 13:22:08;;;;;;;;;7.25;6.50;;;;;;;;5012270;28;8859;-66
2024/02/21 13:24:33;;;;;;;;;8.00;8.00;;;;;;;;5013652;28;8815;-66
2024/02/21 13:26:59;;;;;;;;;8.75;8.00;;;;;;;;5013599;28;8788;-67
2024/02/21 13:29:24;;;;;;;;;8.25;7.00;;;;;;;;5013561;28;8804;-66
2024/02/21 13:31:49;;;;;;;;;8.25;6.75;;;;;;;;5028847;28;8942;-66
2024/02/21 13:34:15;;;;;;;;;8.25;8.00;;;;;;;;5013211;28;8829;-66
2024/02/21 13:36:40;;;;;;;;;9.25;7.00;;;;;;;;5013224;28;8804;-66
2024/02/21 13:39:07;;;;;;;;;6.25;6.25;;;;;;;;5013267;28;8792;-66
2024/02/21 13:41:33;;;;;;;;;8.00;6.75;;;;;;;;5013259;28;8832;-66
2024/02/21 13:44:00;;;;;;;;;6.25;6.25;;;;;;;;5011461;28;10798;-66
2024/02/21 13:46:26;;;;;;;;;12.00;9.00;;;;;;;;5011990;28;10946;-68
2024/02/21 13:48:52;;;;;;;;;8.50;8.00;;;;;;;;5011693;28;10907;-66
2024/02/21 13:51:20;;;;;;;;;9.00;8.25;;;;;;;;5011673;28;11184;-64
2024/02/21 13:53:45;;;;;;;;;6.75;6.00;;;;;;;;5009630;28;11035;-64
2024/02/21 13:56:10;;;;;;;;;10.75;8.50;;;;;;;;5012555;28;10846;-65
2024/02/21 13:58:37;;;;;;;;;6.00;6.00;;;;;;;;5009941;28;8911;-65
2024/02/21 14:01:02;;;;;;;;;3.75;3.75;;;;;;;;5012771;28;9548;-65
2024/02/21 14:03:28;;;;;;;;;6.25;5.50;;;;;;;;5012726;28;10655;-66
2024/02/21 14:05:53;;;;;;;;;6.75;6.75;;;;;;;;5012324;28;8878;-65
2024/02/21 14:08:18;;;;;;;;;5.50;5.50;;;;;;;;5010816;28;9023;-65
2024/02/21 14:10:43;;;;;;;;;4.00;4.00;;;;;;;;5012335;28;8822;-65
2024/02/21 14:13:09;;;;;;;;;6.75;6.75;;;;;;;;5012240;28;8803;-65
2024/02/21 14:15:34;;;;;;;;;4.50;4.50;;;;;;;;5012196;28;8827;-66
2024/02/21 14:17:59;;;;;;;;;7.75;7.00;;;;;;;;5011933;28;8843;-66
2024/02/21 14:20:25;;;;;;;;;9.00;5.50;;;;;;;;5009948;28;8804;-66
2024/02/21 14:22:50;;;;;;;;;6.00;6.00;;;;;;;;5011822;28;8815;-65
2024/02/21 14:25:15;;;;;;;;;3.75;3.75;;;;;;;;5011992;28;8788;-66
2024/02/21 14:27:41;;;;;;;;;22.50;18.25;;;;;;;;5011551;28;8809;-66
2024/02/21 14:30:10;;;;;;;;;11.50;10.50;;;;;;;;5009865;28;8824;-67
2024/02/21 14:32:36;;;;;;;;;29.75;27.00;;;;;;;;5010778;28;8844;-66
2024/02/21 14:35:01;;;;;;;;;20.50;19.00;;;;;;;;5011516;28;11515;-65
2024/02/21 14:37:26;;;;;;;;;11.50;11.50;;;;;;;;5011369;28;9651;-65
2024/02/21 14:39:51;;;;;;;;;7.25;7.25;;;;;;;;5009852;28;8824;-66
2024/02/21 14:42:17;;;;;;;;;9.75;8.00;;;;;;;;5011753;28;8820;-67
2024/02/21 14:44:42;;;;;;;;;8.75;7.50;;;;;;;;5012050;28;8796;-67
2024/02/21 14:47:08;;;;;;;;;8.25;7.25;;;;;;;;5011492;28;8877;-67
2024/02/21 14:49:33;;;;;;;;;13.50;10.00;;;;;;;;5008560;28;9727;-67
2024/02/21 14:51:58;;;;;;;;;8.00;8.00;;;;;;;;5011465;28;8875;-69
2024/02/21 14:54:24;;;;;;;;;10.00;8.00;;;;;;;;5011902;28;8815;-66
2024/02/21 14:56:49;;;;;;;;;9.25;7.00;;;;;;;;5010548;28;8820;-65
2024/02/21 14:59:16;;;;;;;;;6.00;6.00;;;;;;;;5008892;28;8832;-70
2024/02/21 15:01:42;;;;;;;;;7.00;7.00;;;;;;;;5011911;28;9892;-67
2024/02/21 15:04:07;;;;;;;;;9.00;8.00;;;;;;;;5010828;28;10796;-65
2024/02/21 15:06:36;;;;;;;;;7.00;6.75;;;;;;;;5011465;28;8800;-66
2024/02/21 15:09:01;;;;;;;;;8.00;7.25;;;;;;;;5011627;28;10868;-66
2024/02/21 15:11:26;;;;;;;;;9.75;7.50;;;;;;;;5011413;28;10769;-66
2024/02/21 15:13:52;;;;;;;;;7.00;6.75;;;;;;;;5011668;28;8812;-68
2024/02/21 15:16:17;;;;;;;;;7.00;6.50;;;;;;;;5011473;28;8838;-70
2024/02/21 15:18:42;;;;;;;;;8.00;8.00;;;;;;;;5011498;28;8819;-71
2024/02/21 15:21:10;;;;;;;;;11.50;9.00;;;;;;;;5010965;28;8913;-71
2024/02/21 15:23:35;;;;;;;;;8.25;8.00;;;;;;;;5011437;28;8831;-73
2024/02/21 15:26:01;;;;;;;;;8.25;8.00;;;;;;;;5011178;28;11606;-71
2024/02/21 15:28:28;;;;;;;;;10.00;10.00;;;;;;;;5011210;28;8784;-70
2024/02/21 15:30:53;;;;;;;;;12.25;10.50;;;;;;;;5010781;28;8827;-69
2024/02/21 15:33:19;;;;;;;;;9.50;9.00;;;;;;;;5026585;28;10927;-70
2024/02/21 15:35:44;;;;;;;;;8.25;7.75;;;;;;;;5010925;28;8913;-72
2024/02/21 15:38:10;;;;;;;;;14.75;10.50;;;;;;;;5011180;28;8841;-69
2024/02/21 15:40:35;;;;;;;;;9.25;9.25;;;;;;;;5011061;28;8854;-69
2024/02/21 15:43:01;;;;;;;;;10.00;10.00;;;;;;;;5010634;28;9584;-69
2024/02/21 15:45:26;;;;;;;;;10.50;9.25;;;;;;;;5009652;28;8800;-69
2024/02/21 15:47:54;;;;;;;;;10.50;10.00;;;;;;;;5010021;28;8789;-69
2024/02/21 15:50:19;;;;;;;;;11.75;9.00;;;;;;;;5026294;28;9554;-68
2024/02/21 15:52:44;;;;;;;;;10.00;9.00;;;;;;;;5010974;28;11156;-68
2024/02/21 15:55:12;;;;;;;;;10.25;10.25;;;;;;;;5010946;28;8830;-68
2024/02/21 15:57:37;;;;;;;;;9.00;8.25;;;;;;;;5011240;28;8788;-68
2024/02/21 16:00:03;;;;;;;;;9.50;8.00;;;;;;;;5011037;28;11106;-68
2024/02/21 16:02:28;;;;;;;;;7.50;7.50;;;;;;;;5011093;28;8807;-68
2024/02/21 16:04:56;;;;;;;;;8.00;7.00;;;;;;;;5010780;28;10822;-68
2024/02/21 16:07:21;;;;;;;;;10.50;8.00;;;;;;;;5011012;28;8823;-68
2024/02/21 16:09:47;;;;;;;;;10.25;9.50;;;;;;;;5010763;28;11241;-68
2024/02/21 16:12:12;;;;;;;;;9.25;9.00;;;;;;;;5011143;28;8836;-68
2024/02/21 16:14:37;;;;;;;;;8.25;8.25;;;;;;;;5010773;28;8818;-68
2024/02/21 16:17:05;;;;;;;;;7.50;7.50;;;;;;;;5029230;22;8884;-74
2024/02/21 16:19:30;;;;;;;;;9.00;7.75;;;;;;;;5029957;28;8817;-73
2024/02/21 16:21:57;;;;;;;;;7.25;7.25;;;;;;;;5012408;28;11671;-73
2024/02/21 16:24:22;;;;;;;;;7.50;7.50;;;;;;;;5029804;28;11127;-73
2024/02/21 16:26:47;;;;;;;;;10.00;10.00;;;;;;;;5029882;28;8838;-73
2024/02/21 16:29:13;;;;;;;;;10.25;8.75;;;;;;;;5029856;28;8937;-72
2024/02/21 16:31:39;;;;;;;;;15.75;11.00;;;;;;;;5029662;28;8860;-73
2024/02/21 16:34:07;;;;;;;;;14.50;12.75;;;;;;;;5028188;28;8807;-73
2024/02/21 16:36:32;;;;;;;;;13.00;12.00;;;;;;;;5029766;28;8816;-73
2024/02/21 16:38:59;;;;;;;;;14.50;14.00;;;;;;;;5029681;28;11565;-72
2024/02/21 16:41:24;;;;;;;;;29.00;27.00;;;;;;;;5029820;28;8798;-73
2024/02/21 16:43:50;;;;;;;;;37.00;32.50;;;;;;;;5032483;28;11543;-73
2024/02/21 16:46:15;;;;;;;;;17.25;13.50;;;;;;;;5033839;28;8779;-75
2024/02/21 16:48:41;;;;;;;;;20.25;18.75;;;;;;;;5033939;28;8807;-73
2024/02/21 16:51:06;;;;;;;;;15.25;12.25;;;;;;;;5033551;28;8941;-76
2024/02/21 16:53:32;;;;;;;;;13.50;12.75;;;;;;;;5033693;28;8919;-73
2024/02/21 16:55:59;;;;;;;;;15.25;15.25;;;;;;;;5033737;28;8778;-73
2024/02/21 16:58:24;;;;;;;;;12.50;10.00;;;;;;;;5033665;28;8791;-73
2024/02/21 17:00:49;;;;;;;;;12.75;12.75;;;;;;;;5033501;28;11487;-74
2024/02/21 17:03:19;;;;;;;;;7.00;6.00;;;;;;;;5033607;28;8914;-73
2024/02/21 17:05:45;;;;;;;;;12.50;12.00;;;;;;;;5033498;28;9593;-73
2024/02/21 17:08:10;;;;;;;;;14.00;12.00;;;;;;;;5033805;28;11484;-73
2024/02/21 17:10:35;;;;;;;;;16.00;12.50;;;;;;;;5033344;28;8779;-73
2024/02/21 17:13:02;;;;;;;;;18.50;13.50;;;;;;;;5015542;28;8802;-73
2024/02/21 17:15:27;;;;;;;;;15.75;14.00;;;;;;;;5033482;28;8848;-73
2024/02/21 17:17:52;;;;;;;;;19.00;16.25;;;;;;;;5046405;22;11649;-71
2024/02/21 17:20:18;;;;;;;;;20.75;18.50;;;;;;;;5033500;28;8817;-72
2024/02/21 17:22:43;;;;;;;;;23.25;18.75;;;;;;;;5033493;28;8817;-74
2024/02/21 17:25:10;;;;;;;;;22.75;18.75;;;;;;;;5033439;28;8806;-74
2024/02/21 17:27:36;;;;;;;;;17.50;17.00;;;;;;;;5033598;28;8936;-73
2024/02/21 17:30:03;;;;;;;;;17.75;16.50;;;;;;;;5033390;28;11510;-73
2024/02/21 17:32:29;;;;;;;;;20.50;18.00;;;;;;;;5033057;28;11559;-73
2024/02/21 17:34:55;;;;;;;;;12.50;12.50;;;;;;;;5031598;28;11548;-73
2024/02/21 17:37:20;;;;;;;;;17.50;15.00;;;;;;;;5033178;28;8819;-73
2024/02/21 17:39:45;;;;;;;;;14.00;13.00;;;;;;;;5033072;28;11466;-72
2024/02/21 17:42:13;;;;;;;;;16.00;13.25;;;;;;;;5033412;28;8906;-73
2024/02/21 17:44:41;;;;;;;;;14.00;13.50;;;;;;;;5033397;28;9657;-72
2024/02/21 17:47:07;;;;;;;;;16.50;13.75;;;;;;;;5033222;28;11455;-72
2024/02/21 17:49:33;;;;;;;;;14.50;12.00;;;;;;;;5015009;28;11490;-71
2024/02/21 17:51:58;;;;;;;;;9.00;8.75;;;;;;;;5033005;28;8833;-71
2024/02/21 17:54:23;;;;;;;;;12.25;11.25;;;;;;;;5032750;28;9622;-71
2024/02/21 17:56:49;;;;;;;;;12.75;11.75;;;;;;;;5033102;28;8779;-71
2024/02/21 17:59:14;;;;;;;;;11.75;11.75;;;;;;;;5032897;28;8782;-71
2024/02/21 18:01:40;;;;;;;;;12.00;11.00;;;;;;;;5031605;28;8888;-71
2024/02/21 18:04:05;;;;;;;;;13.25;13.00;;;;;;;;5033003;28;9368;-71
2024/02/21 18:06:32;;;;;;;;;13.25;12.25;;;;;;;;5032501;28;8811;-71
2024/02/21 18:08:58;;;;;;;;;15.50;13.00;;;;;;;;5031662;28;8871;-71
2024/02/21 18:11:24;;;;;;;;;13.50;13.00;;;;;;;;5032686;28;11510;-71
2024/02/21 18:13:49;;;;;;;;;11.25;11.25;;;;;;;;5014920;28;8806;-72
2024/02/21 18:16:15;;;;;;;;;13.00;12.75;;;;;;;;5032687;28;9575;-72
2024/02/21 18:18:40;;;;;;;;;11.75;11.00;;;;;;;;5032925;28;9552;-72
2024/02/21 18:21:06;;;;;;;;;12.50;11.50;;;;;;;;5032239;28;11490;-72
2024/02/21 18:23:32;;;;;;;;;11.25;8.75;;;;;;;;5014640;28;8818;-72
2024/02/21 18:25:58;;;;;;;;;11.25;11.00;;;;;;;;5032222;28;11422;-72
2024/02/21 18:28:24;;;;;;;;;11.00;10.50;;;;;;;;5032413;28;8774;-72
2024/02/21 18:30:49;;;;;;;;;14.75;12.50;;;;;;;;5032080;28;11515;-72
2024/02/21 18:33:14;;;;;;;;;16.75;13.75;;;;;;;;5014462;28;8929;-72
2024/02/21 18:35:39;;;;;;;;;15.00;13.50;;;;;;;;5031956;28;9613;-69
2024/02/21 18:38:05;;;;;;;;;16.75;13.75;;;;;;;;5032157;28;8787;-74
2024/02/21 18:40:30;;;;;;;;;13.00;12.00;;;;;;;;5028772;28;8840;-71
2024/02/21 18:42:57;;;;;;;;;13.75;11.75;;;;;;;;5032094;28;9600;-71
2024/02/21 18:45:23;;;;;;;;;14.00;11.50;;;;;;;;5031928;28;8782;-70
2024/02/21 18:47:48;;;;;;;;;16.50;11.50;;;;;;;;5031652;28;11722;-74
2024/02/21 18:50:13;;;;;;;;;17.25;12.50;;;;;;;;5031347;28;8864;-71
2024/02/21 18:52:39;;;;;;;;;13.00;13.00;;;;;;;;5031738;28;9509;-72
2024/02/21 18:55:04;;;;;;;;;16.00;12.25;;;;;;;;5031272;28;9641;-71
2024/02/21 18:57:31;;;;;;;;;17.25;16.00;;;;;;;;5031741;28;8834;-71
2024/02/21 18:59:57;;;;;;;;;18.00;15.25;;;;;;;;5029459;28;8803;-70
2024/02/21 19:02:23;;;;;;;;;17.25;12.75;;;;;;;;5010789;28;11590;-80
2024/02/21 19:04:48;;;;;;;;;11.50;11.50;;;;;;;;5025573;28;8819;-67
2024/02/21 19:07:13;;;;;;;;;15.75;14.75;;;;;;;;5028240;28;11498;-67
2024/02/21 19:09:40;;;;;;;;;19.25;16.00;;;;;;;;5016235;28;8815;-67
2024/02/21 19:12:05;;;;;;;;;17.00;16.00;;;;;;;;5009445;28;9890;-71
2024/02/21 19:14:31;;;;;;;;;12.75;12.75;;;;;;;;5007759;28;11511;-69
2024/02/21 19:16:56;;;;;;;;;19.25;18.00;;;;;;;;5007787;28;8835;-68
2024/02/21 19:19:21;;;;;;;;;21.50;18.50;;;;;;;;5029178;28;8831;-68
2024/02/21 19:21:47;;;;;;;;;18.75;17.50;;;;;;;;5016355;28;8812;-71
2024/02/21 19:24:13;;;;;;;;;19.00;17.00;;;;;;;;5008109;28;8816;-70
2024/02/21 19:26:39;;;;;;;;;26.00;21.00;;;;;;;;5007383;28;11532;-71
2024/02/21 19:29:04;;;;;;;;;20.00;20.00;;;;;;;;5009491;28;8808;-67
2024/02/21 19:31:30;;;;;;;;;20.00;20.00;;;;;;;;5007146;28;9665;-66
2024/02/21 19:33:55;;;;;;;;;26.50;18.25;;;;;;;;5008898;28;8825;-71
2024/02/21 19:36:21;;;;;;;;;22.25;21.50;;;;;;;;5007375;28;8863;-68
2024/02/21 19:38:48;;;;;;;;;23.00;21.50;;;;;;;;5011436;28;9008;-67
2024/02/21 19:41:15;;;;;;;;;23.50;21.75;;;;;;;;5011563;28;11615;-66
2024/02/21 19:43:40;;;;;;;;;27.25;23.00;;;;;;;;5024409;28;11563;-66
2024/02/21 19:46:05;;;;;;;;;25.75;24.00;;;;;;;;5019486;28;11605;-67
2024/02/21 19:48:30;;;;;;;;;23.50;21.50;;;;;;;;5025538;28;8823;-69
2024/02/21 19:50:56;;;;;;;;;26.75;25.75;;;;;;;;5022818;28;8850;-68
2024/02/21 19:53:22;;;;;;;;;30.75;22.00;;;;;;;;5017268;28;8801;-68
2024/02/21 19:55:47;;;;;;;;;26.00;23.00;;;;;;;;5017470;28;8809;-68
2024/02/21 19:58:13;;;;;;;;;21.50;21.50;;;;;;;;5023763;28;8879;-68
2024/02/21 20:00:39;;;;;;;;;26.25;24.25;;;;;;;;5008854;28;8822;-68
2024/02/21 20:03:04;;;;;;;;;27.00;24.25;;;;;;;;5020515;28;8818;-68
2024/02/21 20:05:31;;;;;;;;;24.75;23.25;;;;;;;;5020187;28;8800;-69
2024/02/21 20:07:56;;;;;;;;;24.50;24.00;;;;;;;;5018138;28;8830;-68
2024/02/21 20:10:22;;;;;;;;;25.50;22.75;;;;;;;;5026256;28;12341;-69
2024/02/21 20:12:47;;;;;;;;;24.75;22.75;;;;;;;;5001538;28;8931;-67
2024/02/21 20:15:14;;;;;;;;;30.50;25.75;;;;;;;;4998206;28;8804;-68
2024/02/21 20:17:42;;;;;;;;;30.50;26.00;;;;;;;;5019429;28;8816;-68
2024/02/21 20:20:08;;;;;;;;;31.00;28.75;;;;;;;;5018250;28;11547;-68
2024/02/21 20:22:34;;;;;;;;;33.00;28.25;;;;;;;;5019282;28;12368;-67
2024/02/21 20:24:59;;;;;;;;;30.25;29.75;;;;;;;;5013479;28;11563;-67
2024/02/21 20:27:24;;;;;;;;;31.50;25.75;;;;;;;;4999131;28;8868;-67
2024/02/21 20:29:50;;;;;;;;;29.50;26.00;;;;;;;;5016651;28;8813;-67
2024/02/21 20:32:15;;;;;;;;;28.50;24.50;;;;;;;;5015566;28;8861;-68
2024/02/21 20:34:40;;;;;;;;;31.00;26.50;;;;;;;;5017048;28;8803;-67
2024/02/21 20:37:07;;;;;;;;;33.75;26.75;;;;;;;;5014954;28;9347;-67
2024/02/21 20:39:32;;;;;;;;;29.75;27.50;;;;;;;;5016557;28;8938;-67
2024/02/21 20:41:57;;;;;;;;;29.50;29.50;;;;;;;;4999183;28;12673;-66
2024/02/21 20:44:26;;;;;;;;;27.50;26.00;;;;;;;;5020284;28;8787;-66
2024/02/21 20:46:52;;;;;;;;;29.25;26.25;;;;;;;;5016690;28;8912;-67
2024/02/21 20:49:17;;;;;;;;;38.50;31.00;;;;;;;;5017316;28;11541;-67
2024/02/21 20:51:45;;;;;;;;;22.25;20.50;;;;;;;;5017154;28;8894;-67
2024/02/21 20:54:11;;;;;;;;;30.75;26.00;;;;;;;;5017561;28;8776;-67
2024/02/21 20:56:36;;;;;;;;;31.50;28.00;;;;;;;;5016331;28;11558;-69
2024/02/21 20:59:01;;;;;;;;;22.75;16.00;;;;;;;;5018480;28;8810;-66
2024/02/21 21:01:27;;;;;;;;;30.25;29.00;;;;;;;;5000736;28;8805;-67
2024/02/21 21:03:52;;;;;;;;;30.50;26.50;;;;;;;;5009060;28;8807;-66
2024/02/21 21:06:18;;;;;;;;;30.00;25.00;;;;;;;;5020130;28;8835;-65
2024/02/21 21:08:44;;;;;;;;;33.25;30.50;;;;;;;;5018960;28;8797;-66
2024/02/21 21:11:11;;;;;;;;;41.00;36.75;;;;;;;;5019560;28;11830;-66
2024/02/21 21:13:36;;;;;;;;;32.00;30.50;;;;;;;;5017832;28;8829;-66
2024/02/21 21:16:01;;;;;;;;;38.00;30.75;;;;;;;;5019477;28;11522;-67
2024/02/21 21:18:29;;;;;;;;;33.00;30.75;;;;;;;;5020062;28;8791;-67
2024/02/21 21:20:54;;;;;;;;;36.25;27.25;;;;;;;;5017987;28;8835;-66
2024/02/21 21:23:19;;;;;;;;;29.75;28.00;;;;;;;;4988222;28;11590;-67
2024/02/21 21:25:45;;;;;;;;;32.25;31.00;;;;;;;;4967155;28;11628;-66
2024/02/21 21:28:10;;;;;;;;;31.00;29.75;;;;;;;;5017263;28;8839;-66
2024/02/21 21:30:35;;;;;;;;;31.50;26.25;;;;;;;;5019648;28;8813;-68
2024/02/21 21:33:00;;;;;;;;;34.50;31.00;;;;;;;;5021690;28;8869;-66
2024/02/21 21:35:26;;;;;;;;;34.50;31.00;;;;;;;;5020357;28;8944;-66
2024/02/21 21:37:51;;;;;;;;;32.50;27.75;;;;;;;;5020425;28;8925;-66
2024/02/21 21:40:17;;;;;;;;;27.50;27.00;;;;;;;;5021769;28;8822;-66
2024/02/21 21:42:42;;;;;;;;;32.75;28.00;;;;;;;;5021066;28;8925;-66
2024/02/21 21:45:09;;;;;;;;;31.00;30.00;;;;;;;;5004710;28;8915;-66
2024/02/21 21:47:34;;;;;;;;;33.50;29.00;;;;;;;;5023155;28;8824;-66
2024/02/21 21:49:59;;;;;;;;;33.50;30.25;;;;;;;;5021786;28;11550;-66
2024/02/21 21:52:25;;;;;;;;;32.50;29.75;;;;;;;;5022835;28;8952;-66
2024/02/21 21:54:50;;;;;;;;;33.25;29.75;;;;;;;;5022717;28;8840;-66
2024/02/21 21:57:15;;;;;;;;;36.00;32.00;;;;;;;;5021427;28;8821;-66
2024/02/21 21:59:41;;;;;;;;;34.50;32.00;;;;;;;;5023020;28;8779;-66
2024/02/21 22:02:06;;;;;;;;;29.75;29.75;;;;;;;;5004270;28;8813;-66
2024/02/21 22:04:31;;;;;;;;;28.25;26.50;;;;;;;;5021697;28;8815;-66
2024/02/21 22:06:57;;;;;;;;;34.00;27.75;;;;;;;;5023156;28;8791;-66
2024/02/21 22:09:22;;;;;;;;;30.25;27.00;;;;;;;;5021566;28;8782;-66
2024/02/21 22:11:47;;;;;;;;;28.75;28.25;;;;;;;;5022224;28;8842;-66
2024/02/21 22:14:13;;;;;;;;;29.00;26.00;;;;;;;;5022556;28;8766;-66
2024/02/21 22:16:38;;;;;;;;;33.75;30.50;;;;;;;;5020763;28;8786;-67
2024/02/21 22:19:03;;;;;;;;;36.50;30.25;;;;;;;;5023282;28;8904;-66
2024/02/21 22:21:29;;;;;;;;;28.25;27.75;;;;;;;;5022007;28;8805;-66
2024/02/21 22:23:54;;;;;;;;;33.00;30.00;;;;;;;;5021141;28;8778;-66
2024/02/21 22:26:20;;;;;;;;;32.50;27.75;;;;;;;;5022821;28;8798;-66
2024/02/21 22:28:46;;;;;;;;;27.75;27.25;;;;;;;;5021484;28;8805;-66
2024/02/21 22:31:14;;;;;;;;;33.25;27.75;;;;;;;;5021109;28;8822;-66
2024/02/21 22:33:40;;;;;;;;;29.00;28.25;;;;;;;;5004985;28;11548;-66
2024/02/21 22:36:06;;;;;;;;;24.75;24.50;;;;;;;;5021140;28;11568;-67
2024/02/21 22:38:32;;;;;;;;;27.25;26.50;;;;;;;;5021224;28;11568;-67
2024/02/21 22:40:58;;;;;;;;;33.50;31.00;;;;;;;;5022755;28;8798;-67
2024/02/21 22:43:23;;;;;;;;;31.50;29.75;;;;;;;;5020890;28;11560;-66
2024/02/21 22:45:49;;;;;;;;;28.50;27.50;;;;;;;;5021249;28;8813;-66
2024/02/21 22:48:14;;;;;;;;;32.00;29.25;;;;;;;;5022910;28;9555;-66